createdAt,value
2022-07-27T00:03:04.259Z,99878.19
2022-07-27T00:07:55.947Z,99881.44
2022-07-27T00:12:47.969Z,99888.25
2022-07-27T00:17:39.647Z,99879.31
2022-07-27T00:22:31.330Z,99882.25
2022-07-27T00:27:22.952Z,99876.44
2022-07-27T00:32:14.621Z,99875.44
2022-07-27T00:37:06.606Z,99865.69
2022-07-27T00:41:58.546Z,99871.19
2022-07-27T00:46:50.254Z,99860.13
2022-07-27T00:51:41.964Z,99852.66
2022-07-27T00:56:34.279Z,99855.19
2022-07-27T01:01:26.023Z,99863.19
2022-07-27T01:06:23.372Z,99868.44
2022-07-27T01:11:19.059Z,99867.69
2022-07-27T01:16:11.284Z,99863.50
2022-07-27T01:21:06.847Z,99845.59
2022-07-27T01:25:59.677Z,99844.81
2022-07-27T01:30:51.360Z,99848.81
2022-07-27T01:35:43.069Z,99829.25
2022-07-27T01:40:36.963Z,99832.63
2022-07-27T01:45:28.757Z,99822.84
2022-07-27T01:50:20.486Z,99821.63
2022-07-27T01:55:13.008Z,99815.59
2022-07-27T02:00:11.186Z,99808.09
2022-07-27T02:05:03.444Z,99800.63
2022-07-27T02:09:55.393Z,99791.25
2022-07-27T02:14:47.180Z,99800.66
2022-07-27T02:19:38.850Z,99790.50
2022-07-27T02:24:30.457Z,99801.34
2022-07-27T02:29:22.087Z,99791.78
2022-07-27T02:34:13.756Z,99797.44
2022-07-27T02:39:05.442Z,99789.50
2022-07-27T02:43:58.289Z,99793.91
2022-07-27T02:48:50.362Z,99787.25
2022-07-27T02:53:42.216Z,99788.09
2022-07-27T02:58:34.038Z,99777.25
2022-07-27T03:03:34.498Z,99771.19
2022-07-27T03:08:28.558Z,99779.97
2022-07-27T03:13:20.225Z,99786.69
2022-07-27T03:18:12.024Z,99782.91
2022-07-27T03:23:03.649Z,99783.97
2022-07-27T03:27:57.331Z,99779.41
2022-07-27T03:32:52.226Z,99790.69
2022-07-27T03:37:44.067Z,99792.38
2022-07-27T03:42:35.741Z,99787.41
2022-07-27T03:47:27.543Z,99773.66
2022-07-27T03:52:20.239Z,99787.03
2022-07-27T03:57:12.005Z,99784.75
2022-07-27T04:02:05.052Z,99791.00
2022-07-27T04:06:56.890Z,99789.16
2022-07-27T04:11:51.174Z,99786.84
2022-07-27T04:16:43.358Z,99785.38
2022-07-27T04:21:35.403Z,99792.69
2022-07-27T04:26:27.376Z,99795.00
2022-07-27T04:31:19.081Z,99793.97
2022-07-27T04:36:10.842Z,99790.66
2022-07-27T04:41:02.636Z,99777.75
2022-07-27T04:45:54.349Z,99773.56
2022-07-27T04:50:47.394Z,99775.47
2022-07-27T04:55:44.588Z,99772.53
2022-07-27T05:00:36.541Z,99777.88
2022-07-27T05:05:28.282Z,99772.56
2022-07-27T05:10:20.899Z,99771.16
2022-07-27T05:15:12.663Z,99768.13
2022-07-27T05:20:05.205Z,99764.59
2022-07-27T05:24:56.858Z,99771.19
2022-07-27T05:29:49.713Z,99774.03
2022-07-27T05:34:42.153Z,99777.19
2022-07-27T05:39:33.879Z,99769.97
2022-07-27T05:44:25.642Z,99774.53
2022-07-27T05:49:17.586Z,99775.19
2022-07-27T05:54:09.583Z,99780.66
2022-07-27T05:59:06.493Z,99778.47
2022-07-27T06:04:01.675Z,99779.25
2022-07-27T06:08:54.256Z,99788.13
2022-07-27T06:13:46.031Z,99792.28
2022-07-27T06:18:37.930Z,99780.91
2022-07-27T06:23:29.828Z,99781.25
2022-07-27T06:28:21.710Z,99785.56
2022-07-27T06:33:14.550Z,99781.53
2022-07-27T06:38:06.925Z,99781.25
2022-07-27T06:42:59.205Z,99779.09
2022-07-27T06:47:51.344Z,99777.34
2022-07-27T06:52:43.687Z,99774.22
2022-07-27T06:57:35.427Z,99773.59
2022-07-27T07:02:28.156Z,99776.97
2022-07-27T07:07:21.002Z,99780.78
2022-07-27T07:12:12.641Z,99773.13
2022-07-27T07:17:04.471Z,99774.16
2022-07-27T07:21:56.124Z,99775.50
2022-07-27T07:26:47.885Z,99777.34
2022-07-27T07:31:39.865Z,99783.34
2022-07-27T07:36:31.770Z,99785.00
2022-07-27T07:41:24.080Z,99787.66
2022-07-27T07:46:15.942Z,99791.03
2022-07-27T07:51:07.929Z,99797.75
2022-07-27T07:56:00.475Z,99804.41
2022-07-27T08:00:52.578Z,99806.44
2022-07-27T08:05:44.817Z,99800.63
2022-07-27T08:10:36.497Z,99798.66
2022-07-27T08:15:33.089Z,99793.41
2022-07-27T08:20:28.878Z,99791.28
2022-07-27T08:25:20.635Z,99792.78
2022-07-27T08:30:12.768Z,99798.44
2022-07-27T08:35:05.846Z,99792.75
2022-07-27T08:45:34.517Z,99772.22
2022-07-27T08:50:28.306Z,99775.88
2022-07-27T08:55:20.527Z,99785.06
2022-07-27T09:00:12.981Z,99783.41
2022-07-27T09:05:05.537Z,99766.25
2022-07-27T09:09:57.166Z,99776.28
2022-07-27T09:14:53.089Z,99770.13
2022-07-27T09:19:59.987Z,99762.25
2022-07-27T09:25:04.717Z,99767.25
2022-07-27T09:30:17.954Z,99752.38
2022-07-27T09:35:19.635Z,99744.66
2022-07-27T09:40:13.651Z,99751.09
2022-07-27T09:45:32.487Z,99746.53
2022-07-27T09:50:31.100Z,99742.91
2022-07-27T09:55:25.544Z,99732.88
2022-07-27T10:00:17.855Z,99735.13
2022-07-27T10:05:10.422Z,99738.81
2022-07-27T10:10:02.911Z,99737.88
2022-07-27T10:14:54.556Z,99733.44
2022-07-27T10:19:49.942Z,99732.38
2022-07-27T10:24:41.598Z,99725.50
2022-07-27T10:29:33.365Z,99731.66
2022-07-27T10:34:35.190Z,99727.66
2022-07-27T10:39:33.117Z,99725.69
2022-07-27T10:44:28.876Z,99720.59
2022-07-27T10:49:29.390Z,99713.06
2022-07-27T10:54:25.800Z,99715.44
2022-07-27T11:00:06.874Z,99716.59
2022-07-27T11:04:52.569Z,99709.41
2022-07-27T11:14:59.403Z,99710.75
2022-07-27T11:19:56.006Z,99708.28
2022-07-27T11:24:49.801Z,99705.47
2022-07-27T11:29:43.731Z,99699.72
2022-07-27T11:34:36.845Z,99690.34
2022-07-27T11:44:42.622Z,99682.94
2022-07-27T11:49:34.810Z,99669.41
2022-07-27T11:54:28.248Z,99672.88
2022-07-27T11:59:27.947Z,99668.41
2022-07-27T12:04:21.559Z,99670.59
2022-07-27T12:09:16.063Z,99651.44
2022-07-27T12:14:15.297Z,99660.56
2022-07-27T12:19:07.218Z,99660.09
2022-07-27T12:23:58.950Z,99647.53
2022-07-27T12:29:13.343Z,99639.53
2022-07-27T12:34:06.785Z,99640.97
2022-07-27T12:38:58.887Z,99638.66
2022-07-27T12:44:07.086Z,99630.13
2022-07-27T12:48:58.827Z,99626.72
2022-07-27T12:53:50.523Z,99621.66
2022-07-27T12:59:01.406Z,99626.72
2022-07-27T13:03:53.206Z,99626.56
2022-07-27T13:08:45.094Z,99611.97
2022-07-27T13:13:36.841Z,99608.97
2022-07-27T13:18:28.572Z,99612.84
2022-07-27T13:23:21.174Z,99613.00
2022-07-27T13:28:13.111Z,99608.94
2022-07-27T13:33:04.884Z,99606.66
2022-07-27T13:37:56.701Z,99596.50
2022-07-27T13:42:48.429Z,99590.00
2022-07-27T13:47:41.236Z,99600.28
2022-07-27T13:52:33.007Z,99592.22
2022-07-27T13:57:24.757Z,99589.28
2022-07-27T14:02:16.516Z,99587.63
2022-07-27T14:07:14.574Z,99584.78
2022-07-27T14:12:06.408Z,99584.53
2022-07-27T14:16:58.143Z,99586.66
2022-07-27T14:21:49.850Z,99581.44
2022-07-27T14:26:41.549Z,99581.38
2022-07-27T14:31:35.034Z,99578.56
2022-07-27T14:36:26.741Z,99579.06
2022-07-27T14:41:18.412Z,99569.72
2022-07-27T14:46:10.036Z,99569.75
2022-07-27T14:51:01.787Z,99556.41
2022-07-27T14:55:53.787Z,99558.31
2022-07-27T15:00:45.690Z,99552.56
2022-07-27T15:05:50.107Z,99542.09
2022-07-27T15:10:44.163Z,99541.66
2022-07-27T15:15:35.785Z,99537.59
2022-07-27T15:20:27.487Z,99534.44
2022-07-27T15:25:19.169Z,99526.94
2022-07-27T15:30:11.427Z,99524.53
2022-07-27T15:35:03.555Z,99517.47
2022-07-27T15:39:55.563Z,99504.88
2022-07-27T15:44:47.225Z,99496.56
2022-07-27T15:49:38.923Z,99490.13
2022-07-27T15:54:33.892Z,99490.94
2022-07-27T15:59:27.466Z,99487.72
2022-07-27T16:04:19.190Z,99490.72
2022-07-27T16:09:11.909Z,99481.50
2022-07-27T16:14:03.784Z,99475.41
2022-07-27T16:18:57.329Z,99478.78
2022-07-27T16:23:49.982Z,99470.28
2022-07-27T16:28:45.349Z,99471.84
2022-07-27T16:33:37.310Z,99464.38
2022-07-27T16:38:29.194Z,99473.41
2022-07-27T16:43:20.886Z,99461.81
2022-07-27T16:48:12.953Z,99458.03
2022-07-27T16:53:05.136Z,99453.75
2022-07-27T16:57:57.034Z,99454.97
2022-07-27T17:02:48.658Z,99457.69
2022-07-27T17:07:40.428Z,99451.72
2022-07-27T17:12:35.333Z,99449.09
2022-07-27T17:17:30.148Z,99444.06
2022-07-27T17:22:21.774Z,99432.88
2022-07-27T17:27:13.417Z,99430.84
2022-07-27T17:32:05.290Z,99434.81
2022-07-27T17:36:56.920Z,99430.81
2022-07-27T17:41:49.935Z,99431.13
2022-07-27T17:46:41.610Z,99431.25
2022-07-27T17:51:34.677Z,99431.25
2022-07-27T17:56:26.402Z,99423.16
2022-07-27T18:01:18.251Z,99422.03
2022-07-27T18:06:30.326Z,99425.56
2022-07-27T18:11:22.033Z,99429.97
2022-07-27T18:16:14.209Z,99431.78
2022-07-27T18:21:06.392Z,99434.59
2022-07-27T18:25:58.967Z,99437.84
2022-07-27T18:30:52.492Z,99440.00
2022-07-27T18:35:45.481Z,99462.03
2022-07-27T18:40:38.551Z,99461.84
2022-07-27T18:45:34.356Z,99461.56
2022-07-27T18:50:27.204Z,99453.28
2022-07-27T18:55:21.461Z,99450.44
2022-07-27T19:00:13.725Z,99464.56
2022-07-27T19:05:06.042Z,99452.06
2022-07-27T19:09:58.467Z,99446.63
2022-07-27T19:14:53.343Z,99437.09
2022-07-27T19:19:45.724Z,99445.38
2022-07-27T19:24:37.471Z,99442.69
2022-07-27T19:29:29.201Z,99441.03
2022-07-27T19:34:21.214Z,99438.88
2022-07-27T19:39:13.488Z,99440.53
2022-07-27T19:44:05.741Z,99452.88
2022-07-27T19:48:57.712Z,99453.72
2022-07-27T19:53:50.376Z,99457.00
2022-07-27T19:58:42.688Z,99465.50
2022-07-27T20:03:35.028Z,99464.41
2022-07-27T20:08:45.877Z,99462.75
2022-07-27T20:13:37.811Z,99467.44
2022-07-27T20:18:30.697Z,99463.84
2022-07-27T20:23:22.803Z,99472.59
2022-07-27T20:28:14.446Z,99480.84
2022-07-27T20:33:06.648Z,99481.94
2022-07-27T20:37:59.441Z,99491.56
2022-07-27T20:42:51.120Z,99479.75
2022-07-27T20:47:43.006Z,99477.78
2022-07-27T20:52:35.366Z,99488.72
2022-07-27T20:57:27.079Z,99480.78
2022-07-27T21:02:18.815Z,99487.34
2022-07-27T21:07:10.595Z,99494.47
2022-07-27T21:12:02.322Z,99482.38
2022-07-27T21:16:54.054Z,99500.47
2022-07-27T21:21:45.686Z,99489.75
2022-07-27T21:26:38.034Z,99498.25
2022-07-27T21:31:30.613Z,99486.97
2022-07-27T21:36:22.990Z,99494.31
2022-07-27T21:41:15.558Z,99497.84
2022-07-27T21:46:07.556Z,99502.47
2022-07-27T21:50:59.633Z,99502.72
2022-07-27T21:55:51.381Z,99499.69
2022-07-27T22:00:43.665Z,99495.56
2022-07-27T22:05:35.769Z,99502.16
2022-07-27T22:10:30.017Z,99503.53
2022-07-27T22:15:21.669Z,99503.81
2022-07-27T22:20:13.304Z,99497.50
2022-07-27T22:25:05.386Z,99502.16
2022-07-27T22:29:57.597Z,99501.59
2022-07-27T22:34:49.335Z,99501.25
2022-07-27T22:39:40.984Z,99501.72
2022-07-27T22:44:32.678Z,99511.00
2022-07-27T22:49:24.550Z,99500.00
2022-07-27T22:54:16.992Z,99503.19
2022-07-27T22:59:09.023Z,99495.47
2022-07-27T23:04:00.706Z,99489.13
2022-07-27T23:08:52.358Z,99481.72
2022-07-27T23:13:43.991Z,99492.91
2022-07-27T23:18:35.794Z,99483.06
2022-07-27T23:23:27.677Z,99478.38
2022-07-27T23:28:19.497Z,99472.59
2022-07-27T23:33:11.943Z,99482.97
2022-07-27T23:38:03.683Z,99472.56
2022-07-27T23:42:55.457Z,99481.59
2022-07-27T23:47:47.264Z,99468.16
2022-07-27T23:52:39.187Z,99457.75
2022-07-27T23:57:30.883Z,99465.69
